Time;durP1;ratioP1;P1;durP2;ratioP2;P2;SDS_P1;SDS_P2;PMS_P1;PMS_P2;Temp;Humidity;BMP_temperature;BMP_pressure;BME280_temperature;BME280_humidity;BME280_pressure;Samples;Min_cycle;Max_cycle;Signal;HPM_P1;HPM_P2
2022/11/10 00:00:53;;;;;;;9.68;2.13;;;;;;;11.23;100.00;101625.13;5275188;28;20029;-72
2022/11/10 00:03:27;;;;;;;15.15;3.75;;;;;;;11.18;100.00;101617.59;5277181;28;20066;-73
2022/11/10 00:06:01;;;;;;;7.55;2.53;;;;;;;11.23;100.00;101633.00;5271724;28;20052;-72
2022/11/10 00:08:33;;;;;;;9.45;2.60;;;;;;;11.18;100.00;101627.25;5275993;28;20028;-73
2022/11/10 00:11:05;;;;;;;11.77;2.90;;;;;;;11.16;100.00;101634.41;5273848;28;20039;-73
2022/11/10 00:16:59;;;;;;;10.27;2.65;;;;;;;11.18;100.00;101627.25;5275753;28;20511;-72
2022/11/10 00:19:21;;;;;;;9.85;3.15;;;;;;;11.12;100.00;101630.34;5276349;28;20123;-73
2022/11/10 00:21:52;;;;;;;10.52;2.50;;;;;;;11.11;100.00;101626.88;5273613;28;20028;-72
2022/11/10 00:24:24;;;;;;;11.10;2.90;;;;;;;11.09;100.00;101620.91;5275661;28;20096;-73
2022/11/10 00:26:55;;;;;;;14.68;3.70;;;;;;;11.10;100.00;101630.47;5274993;28;20029;-73
2022/11/10 00:29:26;;;;;;;11.40;3.03;;;;;;;11.07;100.00;101630.69;5272338;28;20032;-73
2022/11/10 00:31:57;;;;;;;12.10;2.90;;;;;;;11.08;100.00;101631.50;5276515;28;20036;-73
2022/11/10 00:34:29;;;;;;;11.52;3.08;;;;;;;11.04;100.00;101635.31;5276112;28;20354;-73
2022/11/10 00:37:01;;;;;;;11.10;2.92;;;;;;;11.07;100.00;101642.97;5275326;28;20497;-73
2022/11/10 00:39:32;;;;;;;11.65;2.85;;;;;;;11.01;100.00;101659.97;5273555;28;20040;-73
2022/11/10 00:42:05;;;;;;;10.95;2.55;;;;;;;11.05;100.00;101664.03;5273945;28;20040;-73
2022/11/10 00:44:36;;;;;;;13.80;2.90;;;;;;;11.01;100.00;101657.34;5273467;28;20020;-72
2022/11/10 00:47:07;;;;;;;12.00;2.92;;;;;;;11.04;100.00;101661.53;5273908;28;20440;-73
2022/11/10 00:49:39;;;;;;;11.35;2.33;;;;;;;11.02;100.00;101659.00;5274200;28;20033;-73
2022/11/10 00:52:10;;;;;;;8.90;2.65;;;;;;;11.03;100.00;101667.75;5273059;28;20070;-73
2022/11/10 00:54:41;;;;;;;10.45;2.95;;;;;;;11.03;100.00;101665.94;5274558;28;20115;-73
2022/11/10 00:57:12;;;;;;;11.85;3.05;;;;;;;10.98;100.00;101661.97;5271809;28;20029;-73
2022/11/10 00:59:44;;;;;;;12.45;3.20;;;;;;;11.02;100.00;101659.00;5276517;28;20029;-73
2022/11/10 01:02:15;;;;;;;10.98;2.85;;;;;;;11.02;100.00;101663.41;5273720;28;20023;-73
2022/11/10 01:04:46;;;;;;;10.88;3.05;;;;;;;10.96;100.00;101657.69;5257757;28;20060;-73
2022/11/10 01:07:17;;;;;;;10.45;2.67;;;;;;;10.95;100.00;101663.88;5272198;28;20481;-72
2022/11/10 01:09:49;;;;;;;12.75;2.40;;;;;;;10.94;100.00;101661.38;5275606;28;20052;-72
2022/11/10 01:12:20;;;;;;;10.43;2.65;;;;;;;10.99;100.00;101664.50;5275164;28;20024;-73
2022/11/10 01:14:51;;;;;;;14.15;3.08;;;;;;;10.98;100.00;101667.22;5274376;28;20031;-72
2022/11/10 01:17:22;;;;;;;13.23;2.65;;;;;;;10.96;100.00;101660.31;5274612;28;20055;-72
2022/11/10 01:19:54;;;;;;;13.25;2.75;;;;;;;10.98;100.00;101670.66;5272119;28;20025;-72
2022/11/10 01:22:25;;;;;;;9.07;2.53;;;;;;;10.98;100.00;101678.53;5275344;28;20496;-72
2022/11/10 01:24:56;;;;;;;15.50;2.88;;;;;;;10.94;100.00;101684.97;5273349;28;20482;-72
2022/11/10 01:27:27;;;;;;;12.60;3.13;;;;;;;10.95;100.00;101692.72;5275063;28;20032;-72
2022/11/10 01:29:59;;;;;;;13.82;3.60;;;;;;;10.96;100.00;101702.25;5270054;28;20039;-72
2022/11/10 01:32:30;;;;;;;14.02;3.63;;;;;;;11.00;100.00;101700.25;5274712;28;20059;-72
2022/11/10 01:35:02;;;;;;;12.15;3.05;;;;;;;10.99;100.00;101701.22;5275270;28;20041;-72
2022/11/10 01:37:33;;;;;;;12.15;2.80;;;;;;;11.00;100.00;101696.81;5276114;28;20040;-73
2022/11/10 01:40:05;;;;;;;11.73;2.70;;;;;;;11.04;100.00;101699.06;5273841;28;20093;-73
2022/11/10 01:42:47;;;;;;;11.27;2.60;;;;;;;11.12;100.00;101717.72;5270291;28;20087;-72
2022/11/10 01:45:21;;;;;;;10.98;2.90;;;;;;;11.01;100.00;101707.16;5274585;28;20036;-72
2022/11/10 01:47:56;;;;;;;11.68;4.18;;;;;;;10.96;100.00;101704.88;5273081;28;20060;-73
2022/11/10 01:50:32;;;;;;;11.57;3.33;;;;;;;10.96;100.00;101704.06;5274110;28;20029;-73
2022/11/10 01:53:09;;;;;;;10.07;2.97;;;;;;;10.92;100.00;101706.06;5271970;28;20444;-72
2022/11/10 01:55:42;;;;;;;9.73;2.70;;;;;;;10.89;100.00;101695.78;5276367;28;20031;-72
2022/11/10 01:58:16;;;;;;;12.00;2.78;;;;;;;10.91;100.00;101699.16;5273906;28;20090;-72
2022/11/10 02:00:48;;;;;;;11.65;2.97;;;;;;;10.95;100.00;101711.09;5277896;28;20028;-72
2022/11/10 02:03:52;;;;;;;12.68;3.65;;;;;;;11.13;100.00;101694.94;5278954;28;20115;-73
2022/11/10 02:06:33;;;;;;;13.35;2.88;;;;;;;10.92;100.00;101692.94;5278087;28;20036;-72
2022/11/10 02:09:05;;;;;;;14.50;3.58;;;;;;;10.90;100.00;101700.06;5278733;28;20064;-73
2022/11/10 02:11:38;;;;;;;12.80;3.03;;;;;;;10.86;100.00;101703.88;5275394;28;20058;-73
2022/11/10 02:14:10;;;;;;;14.23;3.03;;;;;;;10.91;100.00;101707.00;5278285;28;20021;-73
2022/11/10 02:16:42;;;;;;;11.15;3.20;;;;;;;10.87;100.00;101697.69;5276755;28;20030;-73
2022/11/10 02:19:16;;;;;;;14.23;3.80;;;;;;;10.85;100.00;101702.19;5261944;28;20048;-72
2022/11/10 02:21:48;;;;;;;11.32;2.80;;;;;;;10.86;100.00;101710.91;5276319;28;20497;-72
2022/11/10 02:24:19;;;;;;;12.52;2.75;;;;;;;10.85;100.00;101717.94;5277256;28;20105;-73
2022/11/10 02:26:55;;;;;;;11.15;2.90;;;;;;;10.93;100.00;101718.22;5266790;28;20055;-73
2022/11/10 02:29:26;;;;;;;12.82;3.20;;;;;;;10.82;100.00;101723.38;5278176;28;20032;-72
2022/11/10 02:31:57;;;;;;;14.50;3.88;;;;;;;10.80;100.00;101714.81;5278660;28;20124;-73
2022/11/10 02:34:29;;;;;;;16.23;3.70;;;;;;;10.83;100.00;101730.28;5276062;28;20496;-73
2022/11/10 02:37:00;;;;;;;11.85;2.72;;;;;;;10.80;100.00;101743.66;5303218;22;20131;-73
2022/11/10 02:39:31;;;;;;;13.48;2.38;;;;;;;10.78;100.00;101740.28;5291920;28;20034;-74
2022/11/10 02:42:04;;;;;;;11.35;2.72;;;;;;;10.81;100.00;101752.34;5292458;28;20031;-73
2022/11/10 02:44:36;;;;;;;11.57;2.60;;;;;;;10.78;100.00;101758.63;5297773;28;20034;-73
2022/11/10 02:47:07;;;;;;;12.18;2.92;;;;;;;10.79;100.00;101762.09;5295699;28;20457;-73
2022/11/10 02:49:39;;;;;;;10.80;2.40;;;;;;;10.75;100.00;101761.47;5284994;28;20063;-74
2022/11/10 02:52:10;;;;;;;14.15;3.45;;;;;;;10.76;100.00;101773.66;5293899;28;20039;-73
2022/11/10 02:54:41;;;;;;;12.90;2.65;;;;;;;10.76;100.00;101778.88;5285674;28;20466;-73
2022/11/10 02:57:12;;;;;;;11.88;2.67;;;;;;;10.70;100.00;101759.19;5287790;28;20502;-73
2022/11/10 02:59:44;;;;;;;16.92;3.50;;;;;;;10.73;100.00;101758.13;5286137;28;20489;-74
2022/11/10 03:02:15;;;;;;;10.63;3.05;;;;;;;10.69;100.00;101748.81;5285519;28;20401;-72
2022/11/10 03:04:46;;;;;;;14.25;2.63;;;;;;;10.68;100.00;101753.22;5288549;28;20341;-73
2022/11/10 03:07:18;;;;;;;11.05;2.70;;;;;;;10.68;100.00;101758.47;5283876;28;20071;-73
2022/11/10 03:09:49;;;;;;;17.95;3.88;;;;;;;10.67;100.00;101762.00;5271160;28;20016;-73
2022/11/10 03:12:20;;;;;;;11.10;2.65;;;;;;;10.66;100.00;101768.19;5286527;28;20073;-72
2022/11/10 03:14:52;;;;;;;10.85;2.95;;;;;;;10.67;100.00;101776.91;5283322;28;20028;-72
2022/11/10 03:17:23;;;;;;;11.23;2.78;;;;;;;10.64;100.00;101775.31;5282203;28;20488;-72
2022/11/10 03:19:54;;;;;;;18.55;4.50;;;;;;;10.63;100.00;101781.50;5279792;28;20030;-72
2022/11/10 03:22:25;;;;;;;9.88;2.40;;;;;;;10.63;100.00;101772.81;5268180;28;20069;-73
2022/11/10 03:24:57;;;;;;;10.15;3.00;;;;;;;10.58;100.00;101774.94;5290868;28;20028;-72
2022/11/10 03:27:28;;;;;;;10.98;2.70;;;;;;;10.62;100.00;101787.72;5291657;28;20035;-72
2022/11/10 03:29:59;;;;;;;9.23;2.58;;;;;;;10.60;100.00;101786.97;5286475;28;20044;-72
2022/11/10 03:32:31;;;;;;;7.45;2.60;;;;;;;10.56;100.00;101793.38;5284664;28;20031;-74
2022/11/10 03:35:03;;;;;;;14.55;3.13;;;;;;;10.59;100.00;101808.03;5283858;28;20067;-73
2022/11/10 03:37:34;;;;;;;9.55;2.92;;;;;;;10.58;100.00;101809.00;5286549;28;20101;-73
2022/11/10 03:40:06;;;;;;;11.73;3.47;;;;;;;10.56;100.00;101811.72;5286898;28;20165;-73
2022/11/10 03:42:44;;;;;;;9.98;3.30;;;;;;;10.60;100.00;101810.53;5289164;28;20091;-73
2022/11/10 03:45:16;;;;;;;12.55;3.00;;;;;;;10.50;100.00;101819.19;5284924;28;20035;-73
2022/11/10 03:47:48;;;;;;;12.05;3.03;;;;;;;10.46;100.00;101822.00;5286723;28;20025;-73
2022/11/10 03:50:20;;;;;;;10.75;3.10;;;;;;;10.45;100.00;101814.22;5287069;28;20460;-73
2022/11/10 03:52:51;;;;;;;14.60;2.65;;;;;;;10.47;100.00;101822.84;5289158;28;20106;-73
2022/11/10 03:55:22;;;;;;;15.32;3.00;;;;;;;10.43;100.00;101826.59;5267824;28;20540;-73
2022/11/10 03:57:53;;;;;;;14.30;2.90;;;;;;;10.40;100.00;101825.03;5269202;28;20034;-73
2022/11/10 04:00:25;;;;;;;10.77;3.33;;;;;;;10.33;100.00;101829.00;5281635;28;20028;-73
2022/11/10 04:02:56;;;;;;;13.50;3.20;;;;;;;10.35;100.00;101837.63;5286480;28;20052;-73
2022/11/10 04:11:07;;;;;;;13.25;3.55;;;;;;;10.30;100.00;101842.31;5290417;28;20493;-73
2022/11/10 04:16:28;;;;;;;11.00;3.00;;;;;;;10.28;100.00;101861.69;5287893;28;20036;-73
2022/11/10 04:18:59;;;;;;;9.30;3.35;;;;;;;10.26;100.00;101859.16;5280889;28;20033;-73
2022/11/10 04:21:31;;;;;;;11.52;3.00;;;;;;;10.24;100.00;101861.88;5285870;28;20020;-73
2022/11/10 04:24:02;;;;;;;14.95;2.83;;;;;;;10.24;100.00;101861.88;5284314;28;20036;-73
2022/11/10 04:26:37;;;;;;;12.73;3.78;;;;;;;10.24;100.00;101869.72;5268200;28;20685;-73
2022/11/10 04:29:10;;;;;;;11.32;2.85;;;;;;;10.23;100.00;101881.16;5284684;28;20052;-73
2022/11/10 04:31:42;;;;;;;13.80;3.30;;;;;;;10.28;100.00;101877.41;5284027;28;20021;-73
2022/11/10 04:34:14;;;;;;;11.50;3.15;;;;;;;10.21;100.00;101879.56;5287240;28;20020;-73
2022/11/10 04:36:45;;;;;;;16.60;4.30;;;;;;;10.23;100.00;101885.56;5287014;28;20024;-73
2022/11/10 04:39:16;;;;;;;15.00;3.03;;;;;;;10.20;100.00;101889.22;5286323;28;20093;-73
2022/11/10 04:41:48;;;;;;;16.60;3.67;;;;;;;10.19;100.00;101876.19;5279620;28;20035;-73
2022/11/10 04:44:19;;;;;;;11.85;2.92;;;;;;;10.20;100.00;101881.34;5288581;28;20077;-73
2022/11/10 04:46:50;;;;;;;12.93;3.15;;;;;;;10.21;100.00;101898.75;5288394;28;20044;-73
2022/11/10 04:49:22;;;;;;;14.15;4.18;;;;;;;10.24;100.00;101905.56;5289100;28;20036;-73
2022/11/10 04:51:53;;;;;;;13.70;3.05;;;;;;;10.17;100.00;101906.91;5282403;28;20029;-73
2022/11/10 04:54:25;;;;;;;16.98;3.25;;;;;;;10.22;100.00;101915.28;5283149;28;20380;-73
2022/11/10 04:56:56;;;;;;;14.38;3.35;;;;;;;10.19;100.00;101920.72;5286461;28;20032;-73
2022/11/10 04:59:27;;;;;;;13.32;2.95;;;;;;;10.22;100.00;101923.97;5283741;28;20029;-73
2022/11/10 05:01:58;;;;;;;17.05;2.38;;;;;;;10.26;100.00;101929.06;5282378;28;20377;-73
2022/11/10 05:04:30;;;;;;;8.43;2.65;;;;;;;10.23;100.00;101927.47;5283556;28;20520;-73
2022/11/10 05:07:01;;;;;;;12.68;2.60;;;;;;;10.24;100.00;101929.97;5282702;28;20424;-74
2022/11/10 05:09:32;;;;;;;14.18;2.83;;;;;;;10.23;100.00;101930.09;5285719;28;20075;-73
2022/11/10 05:12:03;;;;;;;12.05;3.38;;;;;;;10.18;100.00;101929.53;5280314;28;20095;-74
2022/11/10 05:14:35;;;;;;;14.63;3.35;;;;;;;10.23;100.00;101943.19;5287512;28;20371;-73
2022/11/10 05:17:06;;;;;;;11.20;2.85;;;;;;;10.23;100.00;101943.19;5283399;28;20397;-73
2022/11/10 05:19:37;;;;;;;13.02;2.65;;;;;;;10.21;100.00;101939.81;5282117;28;20385;-73
2022/11/10 05:22:08;;;;;;;15.65;3.55;;;;;;;10.20;100.00;101946.81;5287206;28;20106;-73
2022/11/10 05:24:40;;;;;;;12.57;3.13;;;;;;;10.19;100.00;101945.16;5266616;28;20270;-73
2022/11/10 05:27:11;;;;;;;11.52;3.28;;;;;;;10.19;100.00;101953.00;5281882;28;20028;-73
2022/11/10 05:29:42;;;;;;;14.32;3.83;;;;;;;10.12;100.00;101946.50;5282063;28;20044;-73
2022/11/10 05:32:14;;;;;;;14.52;2.85;;;;;;;10.16;100.00;101957.59;5289836;28;20396;-73
2022/11/10 05:34:45;;;;;;;14.75;3.20;;;;;;;10.12;100.00;101945.66;5285238;28;20428;-73
2022/11/10 05:37:16;;;;;;;12.00;3.38;;;;;;;10.03;100.00;101933.97;5282875;28;20398;-73
2022/11/10 05:39:47;;;;;;;12.90;2.80;;;;;;;10.10;100.00;101942.28;5290391;28;20437;-73
2022/11/10 05:42:19;;;;;;;13.45;3.65;;;;;;;10.08;100.00;101934.53;5293356;28;20377;-73
2022/11/10 05:44:50;;;;;;;14.90;3.35;;;;;;;10.04;100.00;101932.19;5286804;28;20036;-73
2022/11/10 05:47:21;;;;;;;16.60;3.72;;;;;;;9.94;100.00;101938.03;5286258;28;20028;-73
2022/11/10 05:49:52;;;;;;;12.55;3.25;;;;;;;10.02;100.00;101960.28;5288937;28;20032;-73
2022/11/10 05:52:24;;;;;;;12.57;3.58;;;;;;;9.96;100.00;101956.25;5288018;28;20453;-73
2022/11/10 05:54:55;;;;;;;13.10;2.65;;;;;;;9.96;100.00;101967.59;5285360;28;20465;-74
2022/11/10 05:57:26;;;;;;;10.05;2.78;;;;;;;9.95;100.00;101963.28;5283902;28;20020;-73
2022/11/10 05:59:57;;;;;;;12.10;3.30;;;;;;;9.96;100.00;101957.13;5286429;28;20032;-73
2022/11/10 06:02:29;;;;;;;16.02;3.55;;;;;;;9.92;100.00;101960.84;5288758;28;20020;-75
2022/11/10 06:05:00;;;;;;;10.63;2.88;;;;;;;9.95;100.00;101965.91;5291085;28;20032;-73
2022/11/10 06:07:31;;;;;;;13.85;3.30;;;;;;;9.95;100.00;101976.38;5289964;28;20020;-73
2022/11/10 06:10:03;;;;;;;12.88;3.42;;;;;;;9.92;100.00;101978.34;5289371;28;20082;-73
2022/11/10 06:12:35;;;;;;;14.55;2.85;;;;;;;9.89;100.00;101979.41;5285260;28;20027;-73
2022/11/10 06:15:07;;;;;;;18.00;3.28;;;;;;;9.88;100.00;101982.09;5287326;28;20338;-73
2022/11/10 06:17:39;;;;;;;14.52;3.20;;;;;;;9.90;100.00;101996.78;5289193;28;20116;-73
2022/11/10 06:20:11;;;;;;;15.75;3.75;;;;;;;9.87;100.00;101993.50;5285169;28;20110;-73
2022/11/10 06:22:45;;;;;;;15.13;2.95;;;;;;;9.87;100.00;101998.75;5288046;28;20393;-73
2022/11/10 06:25:16;;;;;;;10.90;2.80;;;;;;;9.84;100.00;101991.91;5283252;28;20052;-73
2022/11/10 06:27:48;;;;;;;12.27;3.17;;;;;;;9.81;100.00;101997.38;5287995;28;20570;-73
2022/11/10 06:30:19;;;;;;;14.68;3.17;;;;;;;9.75;100.00;101993.34;5287037;28;20028;-73
2022/11/10 06:32:51;;;;;;;10.52;2.75;;;;;;;9.84;100.00;102004.16;5272288;28;20031;-73
2022/11/10 06:35:23;;;;;;;12.95;2.92;;;;;;;9.81;100.00;102014.81;5285828;28;20020;-73
2022/11/10 06:38:03;;;;;;;15.70;3.10;;;;;;;9.91;100.00;102021.16;5285874;28;20051;-73
2022/11/10 06:40:34;;;;;;;13.18;3.53;;;;;;;9.77;100.00;102018.56;5262932;28;20519;-73
2022/11/10 06:43:08;;;;;;;14.40;3.22;;;;;;;9.81;100.00;102020.91;5276242;28;20037;-73
2022/11/10 06:45:39;;;;;;;13.63;3.40;;;;;;;9.77;100.00;102034.28;5288145;28;20099;-73
2022/11/10 06:48:13;;;;;;;8.38;2.55;;;;;;;9.78;100.00;102030.75;5286016;28;20118;-73
2022/11/10 06:50:44;;;;;;;13.30;2.70;;;;;;;9.77;100.00;102040.34;5283914;28;20119;-73
2022/11/10 06:53:16;;;;;;;13.65;3.13;;;;;;;9.74;100.00;102038.78;5284591;28;20020;-73
2022/11/10 06:55:47;;;;;;;15.20;2.83;;;;;;;9.71;100.00;102043.34;5285126;28;20466;-73
2022/11/10 06:58:19;;;;;;;12.45;3.67;;;;;;;9.78;100.00;102057.75;5285689;28;20055;-74
2022/11/10 07:00:50;;;;;;;13.15;3.05;;;;;;;9.78;100.00;102056.91;5287106;28;20082;-73
2022/11/10 07:03:21;;;;;;;16.10;3.55;;;;;;;9.76;100.00;102054.38;5285115;28;20035;-73
2022/11/10 07:05:52;;;;;;;18.90;4.15;;;;;;;9.78;100.00;102052.50;5289863;28;20060;-73
2022/11/10 07:08:24;;;;;;;15.52;3.17;;;;;;;9.78;100.00;102052.50;5285767;28;20020;-73
2022/11/10 07:10:55;;;;;;;15.93;4.00;;;;;;;9.81;100.00;102068.03;5281905;28;20083;-73
2022/11/10 07:13:26;;;;;;;15.57;3.80;;;;;;;9.81;100.00;102064.56;5286973;28;20019;-73
2022/11/10 07:15:57;;;;;;;11.85;3.17;;;;;;;9.82;100.00;102068.88;5284843;28;20028;-73
2022/11/10 07:18:29;;;;;;;15.32;3.33;;;;;;;9.86;100.00;102080.81;5265867;28;20039;-73
2022/11/10 07:21:04;;;;;;;15.25;3.45;;;;;;;9.96;100.00;102087.16;5286401;28;20088;-73
2022/11/10 07:23:36;;;;;;;9.05;2.33;;;;;;;9.88;100.00;102089.41;5283337;28;20461;-73
2022/11/10 07:26:07;;;;;;;16.50;3.67;;;;;;;9.88;100.00;102087.63;5287342;28;20027;-73
2022/11/10 07:28:38;;;;;;;11.98;2.78;;;;;;;9.87;100.00;102087.75;5289466;28;20385;-73
2022/11/10 07:31:10;;;;;;;14.63;3.63;;;;;;;9.86;100.00;102094.75;5287812;28;20588;-73
2022/11/10 07:33:42;;;;;;;12.82;3.30;;;;;;;9.97;100.00;102126.34;5286999;28;20047;-73
2022/11/10 07:36:14;;;;;;;12.18;2.90;;;;;;;10.01;100.00;102121.75;5287429;28;20326;-73
2022/11/10 07:38:45;;;;;;;8.63;3.22;;;;;;;10.02;100.00;102114.75;5287139;28;20501;-73
2022/11/10 07:41:16;;;;;;;13.70;2.88;;;;;;;10.07;100.00;102115.28;5290256;28;20030;-73
2022/11/10 07:43:48;;;;;;;17.23;3.08;;;;;;;10.09;100.00;102118.66;5264002;28;20032;-73
2022/11/10 07:46:19;;;;;;;13.85;3.13;;;;;;;10.11;100.00;102120.22;5286171;28;20034;-73
2022/11/10 07:48:50;;;;;;;13.40;3.65;;;;;;;10.14;100.00;102113.97;5268286;28;20077;-73
2022/11/10 07:51:21;;;;;;;12.50;3.50;;;;;;;10.20;100.00;102113.59;5285168;28;20023;-73
2022/11/10 07:53:53;;;;;;;13.50;3.60;;;;;;;10.22;100.00;102124.81;5285403;28;20031;-73
2022/11/10 07:56:25;;;;;;;14.18;3.63;;;;;;;10.25;100.00;102111.56;5265720;28;20024;-73
2022/11/10 07:58:57;;;;;;;15.93;4.03;;;;;;;10.26;100.00;102122.88;5288448;28;20032;-73
2022/11/10 08:01:28;;;;;;;15.55;3.83;;;;;;;10.25;100.00;102122.03;5284343;28;20392;-73
2022/11/10 08:03:59;;;;;;;15.00;3.10;;;;;;;10.33;100.00;102142.50;5288751;28;20493;-73
2022/11/10 08:06:31;;;;;;;11.15;3.13;;;;;;;10.26;100.00;102130.72;5278903;28;20489;-73
2022/11/10 08:09:02;;;;;;;13.40;3.30;;;;;;;10.33;100.00;102138.09;5288237;28;20031;-73
2022/11/10 08:11:33;;;;;;;13.98;3.72;;;;;;;10.35;100.00;102144.09;5285550;28;20112;-73
2022/11/10 08:14:04;;;;;;;14.35;2.88;;;;;;;10.41;100.00;102154.16;5285266;28;20720;-73
2022/11/10 08:16:36;;;;;;;13.68;3.50;;;;;;;10.43;100.00;102159.31;5286561;28;20458;-74
2022/11/10 08:19:07;;;;;;;9.85;2.95;;;;;;;10.51;100.00;102171.94;5284948;28;20408;-73
2022/11/10 08:21:38;;;;;;;12.77;3.08;;;;;;;10.51;100.00;102156.22;5284425;28;20097;-73
2022/11/10 08:24:10;;;;;;;14.27;3.33;;;;;;;10.55;100.00;102165.56;5286702;28;20024;-73
2022/11/10 08:26:42;;;;;;;15.45;3.72;;;;;;;10.60;100.00;102176.59;5283866;28;20142;-73
2022/11/10 08:29:13;;;;;;;13.77;2.88;;;;;;;10.64;100.00;102171.03;5285757;28;20024;-73
2022/11/10 08:31:45;;;;;;;13.02;3.70;;;;;;;10.61;100.00;102165.19;5285407;28;20028;-73
2022/11/10 08:34:16;;;;;;;15.27;3.75;;;;;;;10.70;100.00;102182.94;5286041;28;20035;-73
2022/11/10 08:36:51;;;;;;;11.50;3.03;;;;;;;10.78;100.00;102172.78;5326986;22;20084;-79
2022/11/10 08:39:22;;;;;;;14.55;3.17;;;;;;;10.82;100.00;102187.38;5285997;28;20056;-78
2022/11/10 08:41:54;;;;;;;13.25;3.38;;;;;;;10.83;100.00;102181.19;5293144;28;20419;-78
2022/11/10 08:44:25;;;;;;;17.23;3.38;;;;;;;10.89;100.00;102188.69;5297273;28;20038;-78
2022/11/10 08:46:56;;;;;;;14.90;3.35;;;;;;;10.93;100.00;102190.16;5297201;28;20522;-78
2022/11/10 08:49:27;;;;;;;15.00;3.50;;;;;;;11.01;100.00;102187.03;5298485;28;20031;-78
2022/11/10 08:51:59;;;;;;;12.07;3.17;;;;;;;11.03;100.00;102184.34;5296487;28;20032;-78
2022/11/10 08:54:30;;;;;;;15.13;3.42;;;;;;;11.10;100.00;102191.69;5298197;28;20076;-78
2022/11/10 08:57:01;;;;;;;15.15;4.22;;;;;;;11.12;100.00;102200.28;5296230;28;20050;-78
2022/11/10 08:59:32;;;;;;;15.38;3.13;;;;;;;11.18;100.00;102199.91;5297580;28;20029;-78
2022/11/10 09:02:04;;;;;;;13.10;3.20;;;;;;;11.26;100.00;102193.31;5297976;28;20032;-78
2022/11/10 09:04:35;;;;;;;16.58;3.47;;;;;;;11.31;100.00;102204.31;5299663;28;20020;-78
2022/11/10 09:07:06;;;;;;;12.00;3.40;;;;;;;11.34;100.00;102204.13;5296949;28;20161;-78
2022/11/10 09:09:38;;;;;;;12.95;3.38;;;;;;;11.43;100.00;102216.63;5301760;28;20032;-78
2022/11/10 09:12:09;;;;;;;15.27;3.72;;;;;;;11.50;100.00;102217.06;5302435;28;20062;-78
2022/11/10 09:14:40;;;;;;;16.98;3.53;;;;;;;11.55;100.00;102222.84;5301383;28;20046;-78
2022/11/10 09:17:12;;;;;;;13.32;3.63;;;;;;;11.61;100.00;102225.91;5300882;28;20324;-78
2022/11/10 09:19:43;;;;;;;15.38;4.47;;;;;;;11.64;100.00;102224.88;5301588;28;20020;-78
2022/11/10 09:22:14;;;;;;;13.35;3.35;;;;;;;11.71;100.00;102225.31;5301253;28;20076;-78
2022/11/10 09:24:45;;;;;;;13.57;4.45;;;;;;;11.73;100.00;102231.28;5300154;28;20028;-78
2022/11/10 09:27:17;;;;;;;15.32;3.63;;;;;;;11.79;100.00;102223.81;5303065;28;20076;-78
2022/11/10 09:29:48;;;;;;;18.88;3.42;;;;;;;11.87;100.00;102228.59;5302785;28;20034;-78
2022/11/10 09:32:19;;;;;;;14.80;3.15;;;;;;;11.96;100.00;102229.75;5302167;28;20058;-78
2022/11/10 09:34:51;;;;;;;13.90;3.15;;;;;;;11.99;100.00;102227.75;5282923;28;20066;-78
2022/11/10 09:37:22;;;;;;;19.85;3.90;;;;;;;12.07;100.00;102222.78;5300218;28;20048;-78
2022/11/10 09:39:53;;;;;;;13.23;3.55;;;;;;;12.18;100.00;102224.69;5302149;28;20067;-78
2022/11/10 09:42:30;;;;;;;16.13;4.03;;;;;;;12.27;100.00;102226.66;5312616;28;20054;-78
2022/11/10 09:45:19;;;;;;;17.10;3.20;;;;;;;12.45;100.00;102231.59;5301785;28;20028;-78
2022/11/10 09:47:59;;;;;;;14.45;3.17;;;;;;;12.48;100.00;102232.22;5298511;28;20427;-78
2022/11/10 09:50:45;;;;;;;17.52;3.67;;;;;;;12.58;100.00;102224.53;5299762;28;20050;-78
2022/11/10 09:53:22;;;;;;;15.18;4.03;;;;;;;12.65;100.00;102238.88;5299950;28;20023;-78
2022/11/10 09:56:10;;;;;;;17.35;3.80;;;;;;;12.85;100.00;102240.09;5299246;28;20396;-78
2022/11/10 09:58:44;;;;;;;13.60;3.50;;;;;;;12.74;100.00;102232.97;5299759;28;20028;-78
2022/11/10 10:01:26;;;;;;;13.88;3.38;;;;;;;12.95;100.00;102233.22;5297165;28;20031;-79
2022/11/10 10:04:36;;;;;;;16.15;3.30;;;;;;;13.26;100.00;102223.97;5299562;28;20043;-78
2022/11/10 10:07:19;;;;;;;14.18;3.22;;;;;;;13.24;100.00;102241.63;5296868;28;20035;-78
2022/11/10 10:10:03;;;;;;;14.25;3.95;;;;;;;13.33;100.00;102230.44;5301032;28;20035;-78
2022/11/10 10:12:56;;;;;;;12.82;4.32;;;;;;;13.38;100.00;102238.00;5300396;28;20024;-79
2022/11/10 10:15:48;;;;;;;15.82;3.45;;;;;;;13.48;100.00;102241.59;5300561;28;20060;-79
2022/11/10 10:18:28;;;;;;;13.90;3.35;;;;;;;13.63;100.00;102250.16;5300244;28;20022;-78
2022/11/10 10:21:27;;;;;;;13.80;3.55;;;;;;;13.90;100.00;102252.47;5300122;28;20085;-79
2022/11/10 10:24:01;;;;;;;12.65;3.10;;;;;;;13.80;100.00;102262.06;5300483;28;20039;-79
2022/11/10 10:26:38;;;;;;;11.73;3.20;;;;;;;13.96;100.00;102265.19;5300040;28;20105;-79
2022/11/10 10:29:17;;;;;;;12.88;3.90;;;;;;;14.06;100.00;102266.19;5299820;28;20497;-79
2022/11/10 10:31:52;;;;;;;11.15;3.22;;;;;;;14.03;100.00;102258.50;5299289;28;20020;-78
2022/11/10 10:34:28;;;;;;;10.20;3.20;;;;;;;14.15;100.00;102269.88;5301377;28;20027;-79
2022/11/10 10:36:59;;;;;;;11.10;3.47;;;;;;;14.16;100.00;102273.34;5300657;28;20059;-79
2022/11/10 10:39:40;;;;;;;10.70;3.20;;;;;;;14.24;100.00;102281.50;5299834;28;20117;-79
2022/11/10 10:42:27;;;;;;;13.82;3.72;;;;;;;14.33;100.00;102288.72;5301490;28;20471;-79
2022/11/10 10:45:16;;;;;;;11.57;3.10;;;;;;;14.51;100.00;102294.41;5301586;28;20031;-79
2022/11/10 10:47:51;;;;;;;11.45;2.78;;;;;;;14.40;100.00;102312.81;5300253;28;20073;-79
2022/11/10 10:50:41;;;;;;;9.02;2.58;;;;;;;14.60;100.00;102306.84;5272777;28;20089;-79
2022/11/10 10:53:22;;;;;;;12.80;2.90;;;;;;;14.64;100.00;102313.56;5301207;28;20028;-79
2022/11/10 10:56:14;;;;;;;11.93;2.75;;;;;;;14.72;100.00;102307.69;5299761;28;20028;-79
2022/11/10 10:58:59;;;;;;;10.68;2.40;;;;;;;14.88;100.00;102307.28;5301020;28;20036;-79
2022/11/10 11:01:37;;;;;;;13.52;2.60;;;;;;;14.89;100.00;102316.88;5301687;28;20028;-78
2022/11/10 11:04:31;;;;;;;12.52;3.00;;;;;;;15.15;100.00;102315.63;5300473;28;20034;-79
2022/11/10 11:07:20;;;;;;;13.52;2.88;;;;;;;15.09;100.00;102303.78;5297637;28;20036;-79
2022/11/10 11:09:52;;;;;;;11.88;2.95;;;;;;;15.00;100.00;102303.66;5301173;28;20074;-79
2022/11/10 11:12:30;;;;;;;12.88;2.88;;;;;;;15.11;100.00;102298.34;5300767;28;20020;-80
2022/11/10 11:15:14;;;;;;;12.57;3.17;;;;;;;15.22;100.00;102285.13;5302861;28;20062;-81
2022/11/10 11:17:56;;;;;;;10.80;2.40;;;;;;;15.23;100.00;102299.19;5299109;28;20036;-81
2022/11/10 11:20:45;;;;;;;10.88;3.05;;;;;;;15.31;100.00;102294.13;5300441;28;20028;-81
2022/11/10 11:24:18;;;;;;;13.48;3.17;;;;;;;15.53;100.00;102294.03;5301534;28;20055;-79
2022/11/10 11:26:58;;;;;;;10.27;2.88;;;;;;;15.37;100.00;102295.41;5212995;28;20041;-79
2022/11/10 11:29:57;;;;;;;9.07;2.63;;;;;;;15.63;100.00;102293.25;5300324;28;20512;-79
2022/11/10 11:32:48;;;;;;;8.18;2.28;;;;;;;15.62;100.00;102291.59;5299361;28;20037;-79
2022/11/10 11:35:51;;;;;;;11.77;2.65;;;;;;;15.70;100.00;102308.50;5300253;28;20028;-79
2022/11/10 11:38:31;;;;;;;11.35;2.45;;;;;;;15.73;100.00;102320.63;5288186;28;20126;-80
2022/11/10 11:41:40;;;;;;;6.80;1.95;;;;;;;15.95;100.00;102328.44;5299616;28;20051;-81
2022/11/10 11:44:43;;;;;;;13.85;2.35;;;;;;;15.90;100.00;102320.03;5299944;28;20068;-81
2022/11/10 11:47:25;;;;;;;8.60;2.13;;;;;;;15.75;100.00;102335.38;5300082;28;20076;-81
2022/11/10 11:50:11;;;;;;;9.55;2.22;;;;;;;15.80;100.00;102337.66;5301254;28;20043;-81
2022/11/10 11:53:10;;;;;;;10.50;2.50;;;;;;;15.90;100.00;102335.06;5303095;28;20035;-81
2022/11/10 11:55:56;;;;;;;6.47;1.95;;;;;;;15.68;100.00;102339.50;5302565;28;20536;-81